Time;durP1;ratioP1;P1;durP2;ratioP2;P2;SDS_P1;SDS_P2;PMS_P1;PMS_P2;Temp;Humidity;BMP_temperature;BMP_pressure;BME280_temperature;BME280_humidity;BME280_pressure;Samples;Min_cycle;Max_cycle;Signal;HPM_P1;HPM_P2
2023/03/22 00:00:27;;;;;;;8.60;6.45;;;9.60;90.00;;;;;;5071752;28;20236;-69
2023/03/22 00:02:58;;;;;;;8.43;5.70;;;9.60;89.60;;;;;;5071869;28;20196;-69
2023/03/22 00:05:25;;;;;;;7.80;5.13;;;9.50;89.30;;;;;;5071828;28;20605;-70
2023/03/22 00:07:56;;;;;;;7.13;5.82;;;9.50;89.50;;;;;;5070146;28;20213;-69
2023/03/22 00:10:24;;;;;;;8.85;6.18;;;9.40;89.80;;;;;;5071437;28;20182;-69
2023/03/22 00:12:51;;;;;;;7.53;5.88;;;9.40;90.00;;;;;;5071053;28;20192;-69
2023/03/22 00:15:19;;;;;;;8.57;6.25;;;9.30;90.60;;;;;;5071572;28;20186;-69
2023/03/22 00:17:47;;;;;;;9.48;6.30;;;9.20;91.00;;;;;;5071996;28;20679;-69
2023/03/22 00:20:16;;;;;;;7.85;5.53;;;9.20;91.00;;;;;;5070511;28;20217;-69
2023/03/22 00:22:47;;;;;;;8.05;5.68;;;9.30;91.20;;;;;;5071781;28;20197;-68
2023/03/22 00:25:15;;;;;;;6.63;5.03;;;9.30;91.40;;;;;;5071250;28;20193;-69
2023/03/22 00:27:42;;;;;;;6.72;5.97;;;9.30;91.50;;;;;;5071332;28;20182;-69
2023/03/22 00:30:11;;;;;;;6.35;4.45;;;9.30;91.60;;;;;;5071277;28;20718;-68
2023/03/22 00:32:39;;;;;;;7.95;4.82;;;9.30;91.50;;;;;;5073253;28;20641;-69
2023/03/22 00:35:07;;;;;;;9.20;4.80;;;9.40;91.30;;;;;;5075138;28;20186;-69
2023/03/22 00:37:37;;;;;;;8.40;4.63;;;9.50;91.10;;;;;;5075634;28;20204;-69
2023/03/22 00:40:07;;;;;;;5.85;4.45;;;9.50;91.00;;;;;;5075379;28;20221;-69
2023/03/22 00:42:35;;;;;;;11.35;4.07;;;9.50;91.00;;;;;;5075795;28;20260;-70
2023/03/22 00:45:02;;;;;;;5.35;4.22;;;9.50;91.10;;;;;;5075217;28;20279;-68
2023/03/22 00:47:29;;;;;;;5.72;3.67;;;9.50;91.00;;;;;;5075374;28;20193;-68
2023/03/22 00:49:57;;;;;;;7.13;3.55;;;9.50;91.00;;;;;;5074961;28;20239;-68
2023/03/22 00:52:24;;;;;;;5.40;4.20;;;9.50;90.90;;;;;;5075153;28;20644;-68
2023/03/22 00:54:53;;;;;;;9.68;4.20;;;9.50;91.00;;;;;;5075017;28;20640;-69
2023/03/22 00:57:20;;;;;;;5.55;3.80;;;9.60;90.70;;;;;;5075065;28;20204;-68
2023/03/22 00:59:48;;;;;;;6.65;3.15;;;9.60;90.50;;;;;;5074970;28;20278;-68
2023/03/22 01:02:17;;;;;;;5.28;3.83;;;9.60;90.60;;;;;;5074867;28;20264;-71
2023/03/22 01:04:45;;;;;;;4.57;3.30;;;9.60;90.50;;;;;;5074436;28;20554;-67
2023/03/22 01:07:16;;;;;;;5.28;3.30;;;9.50;90.40;;;;;;5074670;28;20241;-68
2023/03/22 01:09:44;;;;;;;5.32;3.80;;;9.60;90.50;;;;;;5074486;28;20285;-67
2023/03/22 01:12:14;;;;;;;6.22;3.78;;;9.60;90.40;;;;;;5074799;28;20190;-70
2023/03/22 01:14:41;;;;;;;5.15;3.90;;;9.60;90.20;;;;;;5074532;28;20182;-70
2023/03/22 01:17:09;;;;;;;5.38;4.05;;;9.70;90.10;;;;;;5074770;28;20201;-68
2023/03/22 01:19:37;;;;;;;6.03;3.10;;;9.70;89.50;;;;;;5074203;28;20210;-68
2023/03/22 01:22:05;;;;;;;4.55;3.85;;;9.70;89.00;;;;;;5074530;28;20186;-68
2023/03/22 01:24:33;;;;;;;3.92;2.65;;;9.70;89.10;;;;;;5074432;28;20266;-68
2023/03/22 01:27:00;;;;;;;3.38;2.60;;;9.70;88.80;;;;;;5074666;28;20197;-68
2023/03/22 01:29:30;;;;;;;4.85;3.45;;;9.70;88.60;;;;;;5074342;28;20178;-71
2023/03/22 01:31:57;;;;;;;4.22;2.90;;;9.70;88.30;;;;;;5074544;28;20281;-71
2023/03/22 01:34:25;;;;;;;4.30;2.85;;;9.80;88.40;;;;;;5073962;28;20178;-68
2023/03/22 01:36:53;;;;;;;4.10;3.35;;;9.80;88.30;;;;;;5074602;28;20614;-68
2023/03/22 01:39:22;;;;;;;7.97;3.25;;;9.80;88.10;;;;;;5074423;28;20210;-68
2023/03/22 01:41:55;;;;;;;10.50;3.55;;;9.90;88.10;;;;;;5074370;28;20198;-68
2023/03/22 01:44:23;;;;;;;5.50;3.40;;;9.90;88.00;;;;;;5073883;28;20201;-68
2023/03/22 01:46:52;;;;;;;4.55;3.80;;;9.80;88.40;;;;;;5074160;28;20198;-68
2023/03/22 01:49:23;;;;;;;8.05;4.60;;;9.80;88.60;;;;;;5073673;28;20287;-68
2023/03/22 01:51:53;;;;;;;5.38;4.03;;;9.80;88.90;;;;;;5074196;28;20193;-68
2023/03/22 01:54:28;;;;;;;5.93;4.13;;;9.70;89.00;;;;;;5073885;28;20233;-68
2023/03/22 01:56:55;;;;;;;4.60;3.70;;;9.70;89.20;;;;;;5074394;28;20196;-70
2023/03/22 01:59:23;;;;;;;5.55;3.75;;;9.70;89.20;;;;;;5073726;28;20312;-69
2023/03/22 02:01:52;;;;;;;5.45;3.70;;;9.70;89.50;;;;;;5074177;28;20194;-68
2023/03/22 02:04:22;;;;;;;6.72;4.22;;;9.70;89.70;;;;;;5073817;28;20715;-69
2023/03/22 02:06:53;;;;;;;5.00;3.65;;;9.70;89.90;;;;;;5073575;28;20711;-68
2023/03/22 02:09:21;;;;;;;7.28;4.15;;;9.70;90.00;;;;;;5071975;28;20193;-71
2023/03/22 02:11:57;;;;;;;4.10;2.95;;;9.60;89.70;;;;;;5073284;28;20213;-68
2023/03/22 02:14:43;;;;;;;5.18;3.75;;;9.60;89.60;;;;;;5072603;28;20197;-69
2023/03/22 02:17:29;;;;;;;5.10;3.75;;;9.60;89.50;;;;;;5072557;28;20200;-69
2023/03/22 02:20:33;;;;;;;5.97;4.30;;;9.60;89.30;;;;;;5072381;28;20206;-69
2023/03/22 02:23:46;;;;;;;6.28;4.13;;;9.60;89.20;;;;;;5072542;28;20215;-68
2023/03/22 02:26:45;;;;;;;5.88;3.60;;;9.60;89.20;;;;;;5071945;28;20221;-68
2023/03/22 02:29:21;;;;;;;6.03;3.85;;;9.60;89.00;;;;;;5072260;28;20300;-69
2023/03/22 02:32:15;;;;;;;4.47;3.42;;;9.50;88.40;;;;;;5071020;28;20208;-69
2023/03/22 02:34:59;;;;;;;6.72;5.32;;;9.50;88.60;;;;;;5071406;28;20186;-68
2023/03/22 02:37:58;;;;;;;6.40;4.15;;;9.50;88.80;;;;;;5072138;28;20197;-68
2023/03/22 02:40:32;;;;;;;4.50;3.70;;;9.40;88.60;;;;;;5072125;28;20213;-69
2023/03/22 02:43:05;;;;;;;4.95;4.45;;;9.30;88.20;;;;;;5072424;28;20671;-68
2023/03/22 02:45:38;;;;;;;7.50;4.45;;;9.30;88.30;;;;;;5071903;28;20190;-68
2023/03/22 02:48:11;;;;;;;5.57;3.95;;;9.20;87.40;;;;;;5071708;28;20259;-69
2023/03/22 02:50:44;;;;;;;5.18;4.10;;;9.10;87.30;;;;;;5071824;28;20228;-68
2023/03/22 02:53:17;;;;;;;6.00;4.18;;;9.00;87.30;;;;;;5072310;28;20887;-68
2023/03/22 02:55:51;;;;;;;6.32;4.45;;;8.90;87.70;;;;;;5071263;28;20197;-68
2023/03/22 02:58:21;;;;;;;5.70;3.90;;;8.80;88.50;;;;;;5072139;28;20193;-68
2023/03/22 03:00:53;;;;;;;5.30;3.80;;;8.70;88.60;;;;;;5071641;28;20205;-69
2023/03/22 03:03:24;;;;;;;5.13;3.95;;;8.70;89.40;;;;;;5072282;28;20251;-68
2023/03/22 03:05:56;;;;;;;5.30;4.00;;;8.60;88.80;;;;;;5022439;28;1398032;-69
2023/03/22 03:08:25;;;;;;;6.53;4.10;;;8.50;89.10;;;;;;5072907;28;20197;-68
2023/03/22 03:10:54;;;;;;;5.55;4.18;;;8.50;89.60;;;;;;5072452;28;20236;-68
2023/03/22 03:13:22;;;;;;;7.80;3.78;;;8.40;89.90;;;;;;5072495;28;20189;-68
2023/03/22 03:15:56;;;;;;;4.82;3.60;;;8.40;90.00;;;;;;5072380;28;20239;-68
2023/03/22 03:18:37;;;;;;;6.70;4.63;;;8.40;90.00;;;;;;5072666;28;20190;-69
2023/03/22 03:21:11;;;;;;;6.00;4.95;;;8.30;90.00;;;;;;5071999;28;20206;-68
2023/03/22 03:23:48;;;;;;;5.57;3.88;;;8.30;90.00;;;;;;5071797;28;20201;-69
2023/03/22 03:26:23;;;;;;;6.95;4.43;;;8.20;90.10;;;;;;5072689;28;20243;-68
2023/03/22 03:28:53;;;;;;;5.50;3.80;;;8.20;90.20;;;;;;5071830;28;20181;-69
2023/03/22 03:31:30;;;;;;;4.57;3.28;;;8.10;90.00;;;;;;5072134;28;20189;-69
2023/03/22 03:34:04;;;;;;;5.50;4.20;;;8.00;89.80;;;;;;5072330;28;20193;-69
2023/03/22 03:36:36;;;;;;;4.18;3.30;;;8.00;90.30;;;;;;5072172;28;20634;-69
2023/03/22 03:39:08;;;;;;;5.80;3.45;;;7.90;90.60;;;;;;5071797;28;20731;-69
2023/03/22 03:41:37;;;;;;;5.85;3.50;;;7.90;90.10;;;;;;5071983;28;20317;-69
2023/03/22 03:44:05;;;;;;;6.57;4.88;;;7.80;90.10;;;;;;5071932;28;20239;-68
2023/03/22 03:46:32;;;;;;;6.55;4.15;;;7.80;90.20;;;;;;5071734;28;20193;-76
2023/03/22 03:49:01;;;;;;;5.07;3.38;;;7.80;90.20;;;;;;5071847;28;20382;-69
2023/03/22 03:51:28;;;;;;;7.85;4.00;;;7.70;90.40;;;;;;5071656;28;20661;-69
2023/03/22 03:53:56;;;;;;;5.90;4.75;;;7.70;90.60;;;;;;5072047;28;20232;-69
2023/03/22 03:56:23;;;;;;;4.97;3.75;;;7.70;90.40;;;;;;5071709;28;20706;-68
2023/03/22 03:58:52;;;;;;;4.90;3.60;;;7.60;90.20;;;;;;5072276;28;20197;-69
2023/03/22 04:01:22;;;;;;;4.93;3.17;;;7.50;90.60;;;;;;5071761;28;20304;-69
2023/03/22 04:03:54;;;;;;;5.25;3.55;;;7.50;91.10;;;;;;5072219;28;20216;-76
2023/03/22 04:06:21;;;;;;;4.43;3.50;;;7.40;91.50;;;;;;5071075;28;20300;-69
2023/03/22 04:08:52;;;;;;;4.65;3.00;;;7.40;91.80;;;;;;5075519;28;20193;-69
2023/03/22 04:11:25;;;;;;;3.45;2.70;;;7.40;91.50;;;;;;5076033;28;20273;-68
2023/03/22 04:13:57;;;;;;;4.97;3.00;;;7.40;91.20;;;;;;5076094;28;20563;-70
2023/03/22 04:16:24;;;;;;;4.35;3.38;;;7.40;91.10;;;;;;5075568;28;20585;-69
2023/03/22 04:18:52;;;;;;;4.95;3.83;;;7.40;91.20;;;;;;5076006;28;20372;-71
2023/03/22 04:21:20;;;;;;;5.75;2.80;;;7.40;91.60;;;;;;5075625;28;20213;-69
2023/03/22 04:23:51;;;;;;;4.93;3.33;;;7.40;91.70;;;;;;5075941;28;20255;-69
2023/03/22 04:26:18;;;;;;;3.72;2.35;;;7.40;91.90;;;;;;5075643;28;20181;-68
2023/03/22 04:28:45;;;;;;;5.30;2.50;;;7.50;92.10;;;;;;5075855;28;20764;-69
2023/03/22 04:31:14;;;;;;;4.72;2.72;;;7.50;91.80;;;;;;5075143;28;20186;-69
2023/03/22 04:33:45;;;;;;;4.55;2.90;;;7.50;91.40;;;;;;5075728;28;20209;-69
2023/03/22 04:36:16;;;;;;;3.60;2.42;;;7.40;91.30;;;;;;5075234;28;20204;-68
2023/03/22 04:38:44;;;;;;;4.00;2.65;;;7.50;91.40;;;;;;5075480;28;20178;-69
2023/03/22 04:41:12;;;;;;;4.10;3.10;;;7.50;91.50;;;;;;5075169;28;20264;-69
2023/03/22 04:43:39;;;;;;;4.05;2.70;;;7.50;91.50;;;;;;5075215;28;20182;-69
2023/03/22 04:46:08;;;;;;;4.43;3.03;;;7.50;91.50;;;;;;5075074;28;20178;-69
2023/03/22 04:48:38;;;;;;;4.00;2.80;;;7.50;91.30;;;;;;5075177;28;20673;-69
2023/03/22 04:51:10;;;;;;;7.40;3.50;;;7.50;91.10;;;;;;5074858;28;20191;-68
2023/03/22 04:53:38;;;;;;;4.97;3.28;;;7.40;91.00;;;;;;5074957;28;20182;-68
2023/03/22 04:56:06;;;;;;;4.53;2.95;;;7.40;91.00;;;;;;5075143;28;20217;-69
2023/03/22 04:58:35;;;;;;;5.35;2.90;;;7.30;91.20;;;;;;5074723;28;20251;-69
2023/03/22 05:01:03;;;;;;;5.10;2.70;;;7.30;91.30;;;;;;5074407;28;20209;-69
2023/03/22 05:03:30;;;;;;;4.78;3.65;;;7.20;91.40;;;;;;5074807;28;20190;-70
2023/03/22 05:06:01;;;;;;;7.50;3.50;;;7.20;91.70;;;;;;5074151;28;20181;-69
2023/03/22 05:08:31;;;;;;;3.25;2.40;;;7.10;91.60;;;;;;5074846;28;20194;-69
2023/03/22 05:11:04;;;;;;;7.30;2.63;;;7.10;90.50;;;;;;5075310;28;20553;-68
2023/03/22 05:13:31;;;;;;;3.85;2.58;;;7.00;90.10;;;;;;5074613;28;20186;-69
2023/03/22 05:15:59;;;;;;;8.05;3.63;;;6.90;90.30;;;;;;5074111;28;20221;-69
2023/03/22 05:18:27;;;;;;;3.92;3.28;;;6.80;90.70;;;;;;5074220;28;20655;-70
2023/03/22 05:20:56;;;;;;;5.70;3.75;;;6.80;91.40;;;;;;5074654;28;20710;-69
2023/03/22 05:23:26;;;;;;;4.47;3.78;;;6.70;91.80;;;;;;5074327;28;20185;-68
2023/03/22 05:25:57;;;;;;;8.30;5.45;;;6.70;92.30;;;;;;5074866;28;20243;-68
2023/03/22 05:28:27;;;;;;;6.75;4.40;;;6.70;92.50;;;;;;5074723;28;20585;-69
2023/03/22 05:30:54;;;;;;;10.23;4.55;;;6.70;92.60;;;;;;5074834;28;20251;-69
2023/03/22 05:33:22;;;;;;;7.07;4.95;;;6.70;92.60;;;;;;5074219;28;20551;-69
2023/03/22 05:35:49;;;;;;;8.88;4.88;;;6.70;92.70;;;;;;5074019;28;20194;-68
2023/03/22 05:38:17;;;;;;;10.35;4.40;;;6.70;92.70;;;;;;5074648;28;20190;-68
2023/03/22 05:40:46;;;;;;;8.57;5.57;;;6.80;92.70;;;;;;5073889;28;20217;-69
2023/03/22 05:43:13;;;;;;;8.10;6.22;;;6.80;92.80;;;;;;5074385;28;20280;-69
2023/03/22 05:45:41;;;;;;;7.70;4.72;;;6.90;92.20;;;;;;5073896;28;20251;-69
2023/03/22 05:48:08;;;;;;;6.63;4.75;;;6.90;92.60;;;;;;5054365;28;20186;-69
2023/03/22 05:50:35;;;;;;;6.97;3.97;;;6.90;93.00;;;;;;5054099;28;20190;-69
2023/03/22 05:53:03;;;;;;;6.32;4.13;;;6.90;92.80;;;;;;5072539;28;20228;-70
2023/03/22 05:55:31;;;;;;;4.50;3.45;;;7.00;92.90;;;;;;5073878;28;20190;-69
2023/03/22 05:58:01;;;;;;;5.50;4.40;;;7.00;92.90;;;;;;5073546;28;20198;-69
2023/03/22 06:00:30;;;;;;;7.22;4.20;;;7.00;92.80;;;;;;5073923;28;20227;-69
2023/03/22 06:03:02;;;;;;;4.90;3.65;;;7.10;93.00;;;;;;5074234;28;20190;-69
2023/03/22 06:05:31;;;;;;;6.55;3.70;;;7.20;93.10;;;;;;5073507;28;20186;-69
2023/03/22 06:07:59;;;;;;;3.97;3.58;;;7.20;92.70;;;;;;5072559;28;20225;-68
2023/03/22 06:10:27;;;;;;;3.97;3.17;;;7.30;92.50;;;;;;5073240;28;20190;-69
2023/03/22 06:12:55;;;;;;;5.47;3.50;;;7.30;92.30;;;;;;5074220;28;20240;-69
2023/03/22 06:15:23;;;;;;;5.38;3.80;;;7.20;92.60;;;;;;5073455;28;20228;-69
2023/03/22 06:17:51;;;;;;;6.28;3.53;;;7.30;93.00;;;;;;5073676;28;20525;-69
2023/03/22 06:20:19;;;;;;;4.53;2.67;;;7.50;92.90;;;;;;5073429;28;20189;-68
2023/03/22 06:22:46;;;;;;;4.65;2.90;;;7.60;92.90;;;;;;5073615;28;20189;-70
2023/03/22 06:25:13;;;;;;;6.63;2.88;;;7.70;92.50;;;;;;5072977;28;20650;-69
2023/03/22 06:27:41;;;;;;;4.63;2.70;;;7.90;92.30;;;;;;5072906;28;20648;-69
2023/03/22 06:30:11;;;;;;;4.35;3.45;;;8.00;91.80;;;;;;5072156;28;20192;-69
2023/03/22 06:32:40;;;;;;;5.80;3.58;;;8.10;91.10;;;;;;5072666;28;20239;-69
2023/03/22 06:35:08;;;;;;;6.80;3.92;;;8.20;90.20;;;;;;5073351;28;20531;-69
2023/03/22 06:37:36;;;;;;;5.95;3.03;;;8.40;90.00;;;;;;5072771;28;20190;-69
2023/03/22 06:40:03;;;;;;;3.63;3.13;;;8.50;90.00;;;;;;5073409;28;20209;-69
2023/03/22 06:42:33;;;;;;;6.85;3.13;;;8.60;88.70;;;;;;5072362;28;20209;-69
2023/03/22 06:45:01;;;;;;;6.82;3.40;;;8.80;87.80;;;;;;5073274;28;20613;-69
2023/03/22 06:47:28;;;;;;;5.85;3.67;;;9.00;87.60;;;;;;5072919;28;20181;-69
2023/03/22 06:49:57;;;;;;;5.07;3.33;;;9.10;85.80;;;;;;5068567;28;20181;-69
2023/03/22 06:52:24;;;;;;;7.00;3.55;;;9.40;84.40;;;;;;5073042;28;20268;-69
2023/03/22 06:54:51;;;;;;;5.30;3.92;;;9.70;84.70;;;;;;5072500;28;20538;-69
2023/03/22 06:57:18;;;;;;;3.28;2.30;;;10.00;82.50;;;;;;5071663;28;20303;-69
2023/03/22 06:59:45;;;;;;;4.03;2.30;;;10.30;80.30;;;;;;5072996;28;20224;-69
2023/03/22 07:02:12;;;;;;;3.92;2.30;;;10.60;77.70;;;;;;5072269;28;20271;-69
2023/03/22 07:04:39;;;;;;;3.28;2.25;;;10.90;77.70;;;;;;5073107;28;20284;-69
2023/03/22 07:07:08;;;;;;;6.15;2.40;;;11.30;77.50;;;;;;5072444;28;20256;-70
2023/03/22 07:09:35;;;;;;;3.13;2.35;;;11.80;76.40;;;;;;5053216;28;20222;-69
2023/03/22 07:12:03;;;;;;;5.68;2.70;;;12.30;74.70;;;;;;5054131;28;20281;-70
2023/03/22 07:14:30;;;;;;;3.70;2.40;;;12.80;71.60;;;;;;5071411;28;20190;-70
2023/03/22 07:16:57;;;;;;;4.55;2.38;;;13.30;69.90;;;;;;5071642;28;20273;-69
2023/03/22 07:19:24;;;;;;;4.77;2.27;;;13.90;62.80;;;;;;5071640;28;20196;-70
2023/03/22 07:21:51;;;;;;;3.23;1.93;;;14.90;57.50;;;;;;5068485;28;20478;-70
2023/03/22 07:24:19;;;;;;;2.53;1.80;;;16.70;54.40;;;;;;5070939;28;20961;-70
2023/03/22 07:26:46;;;;;;;2.40;1.37;;;19.00;48.90;;;;;;5071620;28;20515;-70
2023/03/22 07:29:13;;;;;;;2.60;1.67;;;21.20;41.40;;;;;;5072112;28;20884;-70
2023/03/22 07:31:41;;;;;;;2.83;1.00;;;23.10;38.70;;;;;;5071395;28;20523;-70
2023/03/22 07:34:08;;;;;;;2.43;1.33;;;24.90;33.60;;;;;;5071449;28;20436;-71
2023/03/22 07:36:37;;;;;;;2.67;1.13;;;26.50;29.20;;;;;;5071032;28;20449;-71
2023/03/22 07:39:04;;;;;;;2.70;1.30;;;28.10;27.30;;;;;;5071664;28;20440;-71
2023/03/22 07:41:33;;;;;;;3.57;1.73;;;29.60;24.80;;;;;;5070950;28;20475;-71
2023/03/22 07:44:00;;;;;;;3.93;1.57;;;31.10;23.50;;;;;;5072130;28;20479;-72
2023/03/22 07:46:27;;;;;;;2.60;1.40;;;32.80;22.80;;;;;;5071640;28;20432;-72
2023/03/22 07:48:54;;;;;;;2.73;1.13;;;34.10;20.50;;;;;;5072476;28;20440;-71
2023/03/22 07:51:21;;;;;;;4.10;1.37;;;35.40;19.20;;;;;;5071076;28;21004;-72
2023/03/22 07:53:48;;;;;;;3.40;1.40;;;36.40;17.60;;;;;;5066251;28;20542;-72
2023/03/22 07:56:15;;;;;;;2.67;1.50;;;37.20;16.80;;;;;;5070999;28;20493;-72
2023/03/22 07:58:44;;;;;;;3.70;1.33;;;38.10;16.20;;;;;;5071542;28;20945;-72
2023/03/22 08:01:10;;;;;;;4.23;1.43;;;39.00;15.70;;;;;;5071372;28;20476;-72
2023/03/22 08:03:38;;;;;;;3.50;1.27;;;39.90;15.30;;;;;;5071961;28;20527;-77
2023/03/22 08:06:06;;;;;;;6.00;1.30;;;40.70;14.50;;;;;;5070573;28;20466;-73
2023/03/22 08:08:34;;;;;;;2.90;1.30;;;41.60;12.40;;;;;;5071968;28;20432;-70
2023/03/22 08:11:01;;;;;;;5.73;1.50;;;42.20;12.10;;;;;;5072436;28;20447;-70
2023/03/22 08:13:28;;;;;;;2.30;1.13;;;43.10;11.20;;;;;;5072556;28;21021;-70
2023/03/22 08:15:56;;;;;;;2.30;1.20;;;44.00;11.20;;;;;;5072678;28;20472;-71
2023/03/22 08:18:23;;;;;;;3.30;1.40;;;44.60;10.20;;;;;;5072604;28;20432;-71
2023/03/22 08:20:55;;;;;;;2.70;1.57;;;45.10;10.00;;;;;;5072611;28;20444;-72
2023/03/22 08:23:22;;;;;;;3.10;1.87;;;45.70;9.70;;;;;;5072652;28;20439;-70
2023/03/22 08:25:49;;;;;;;4.80;2.40;;;46.20;9.20;;;;;;5072888;28;20538;-70
2023/03/22 08:28:16;;;;;;;2.83;1.43;;;46.80;8.50;;;;;;5072400;28;20439;-70
2023/03/22 08:30:43;;;;;;;3.30;1.73;;;47.10;8.90;;;;;;5068963;28;21010;-70
2023/03/22 08:33:12;;;;;;;2.53;1.50;;;47.30;9.20;;;;;;5070907;28;20571;-70
2023/03/22 08:35:39;;;;;;;2.63;1.60;;;47.40;8.00;;;;;;5071004;28;20523;-70
2023/03/22 08:38:07;;;;;;;3.30;1.63;;;47.70;8.30;;;;;;5070821;28;20527;-70
2023/03/22 08:40:34;;;;;;;4.03;2.03;;;48.00;8.30;;;;;;5070597;28;20954;-70
2023/03/22 08:43:01;;;;;;;3.93;2.83;;;48.40;8.60;;;;;;5070782;28;20434;-70
2023/03/22 08:45:28;;;;;;;3.63;2.37;;;48.80;8.10;;;;;;5070635;28;20519;-70
2023/03/22 08:47:55;;;;;;;3.37;2.50;;;49.30;8.20;;;;;;5070418;28;20443;-70
2023/03/22 08:50:23;;;;;;;3.07;2.20;;;49.90;7.00;;;;;;5067512;28;20538;-71
2023/03/22 08:52:50;;;;;;;4.20;2.03;;;50.50;7.40;;;;;;5070997;28;20571;-71
2023/03/22 08:55:18;;;;;;;2.97;2.30;;;51.00;7.20;;;;;;5074505;28;20517;-70
2023/03/22 08:57:49;;;;;;;3.83;2.70;;;51.50;6.90;;;;;;5074132;28;20454;-72
2023/03/22 09:00:17;;;;;;;6.50;2.60;;;51.80;6.40;;;;;;5074753;28;20497;-71
2023/03/22 09:02:44;;;;;;;3.40;2.83;;;52.10;6.30;;;;;;5074250;28;20475;-71
2023/03/22 09:05:12;;;;;;;4.40;2.90;;;52.40;6.20;;;;;;5074032;28;20453;-70
2023/03/22 09:07:41;;;;;;;3.23;2.73;;;52.50;6.10;;;;;;5073579;28;20484;-70
2023/03/22 09:10:09;;;;;;;3.93;2.97;;;52.80;5.90;;;;;;5074298;28;20440;-71
2023/03/22 09:12:36;;;;;;;3.30;2.40;;;53.10;5.50;;;;;;5074278;28;20479;-71
2023/03/22 09:15:05;;;;;;;4.07;3.20;;;53.40;5.40;;;;;;5069368;28;20531;-70
2023/03/22 09:17:32;;;;;;;3.67;3.00;;;53.70;5.40;;;;;;5071333;28;20459;-71
2023/03/22 09:19:59;;;;;;;3.27;2.97;;;53.70;5.70;;;;;;5074030;28;20499;-71
2023/03/22 09:22:26;;;;;;;3.40;3.10;;;53.90;5.50;;;;;;5073831;28;20919;-72
2023/03/22 09:24:54;;;;;;;3.80;2.80;;;53.90;5.30;;;;;;5071591;28;20475;-72
2023/03/22 09:27:21;;;;;;;5.00;3.30;;;53.70;5.30;;;;;;5071609;28;20494;-71
2023/03/22 09:29:48;;;;;;;4.60;2.70;;;53.90;5.50;;;;;;5073949;28;20527;-71
2023/03/22 09:32:16;;;;;;;4.23;3.30;;;53.90;5.40;;;;;;5071345;28;20480;-71
2023/03/22 09:34:43;;;;;;;3.63;3.00;;;54.20;5.20;;;;;;5073534;28;20444;-71
2023/03/22 09:37:11;;;;;;;4.67;2.97;;;54.30;5.20;;;;;;5073384;28;20527;-71
2023/03/22 09:39:39;;;;;;;3.77;2.80;;;54.60;5.20;;;;;;5071759;28;20440;-71
2023/03/22 09:42:20;;;;;;;3.40;3.10;;;54.90;5.40;;;;;;5073767;28;20592;-71
2023/03/22 09:44:50;;;;;;;3.10;2.80;;;55.00;5.30;;;;;;5072942;28;20445;-71
2023/03/22 09:47:21;;;;;;;4.47;3.30;;;54.90;4.50;;;;;;5071587;28;20543;-71
2023/03/22 09:49:53;;;;;;;3.63;2.73;;;54.50;4.60;;;;;;5073679;28;20440;-71
2023/03/22 09:52:20;;;;;;;4.57;3.20;;;54.30;4.80;;;;;;5073344;28;20568;-71
2023/03/22 09:54:47;;;;;;;5.50;3.27;;;54.50;5.00;;;;;;5073435;28;20444;-70
2023/03/22 09:57:25;;;;;;;4.33;3.30;;;54.70;4.60;;;;;;5072906;28;20868;-71
2023/03/22 09:59:58;;;;;;;4.17;3.40;;;54.50;4.20;;;;;;5070505;28;20957;-71
2023/03/22 10:02:39;;;;;;;3.70;3.23;;;54.40;4.70;;;;;;5073185;28;20535;-71
2023/03/22 10:05:16;;;;;;;3.63;2.70;;;54.70;4.40;;;;;;5072086;28;20456;-71
2023/03/22 10:08:02;;;;;;;3.00;2.50;;;54.50;4.10;;;;;;5071577;28;20588;-71
2023/03/22 10:10:30;;;;;;;3.30;2.70;;;54.30;4.00;;;;;;5071525;28;20437;-71
2023/03/22 10:13:05;;;;;;;5.17;3.40;;;54.20;4.50;;;;;;5071502;28;20823;-71
2023/03/22 10:15:35;;;;;;;4.23;3.83;;;54.20;4.30;;;;;;5073266;28;20455;-71
2023/03/22 10:18:06;;;;;;;3.37;2.73;;;54.30;4.50;;;;;;5072101;28;20442;-71
2023/03/22 10:20:38;;;;;;;3.70;2.90;;;54.30;4.10;;;;;;5072556;28;20523;-72
2023/03/22 10:23:10;;;;;;;3.67;2.87;;;54.20;3.90;;;;;;5072780;28;20446;-71
2023/03/22 10:25:40;;;;;;;6.10;2.77;;;53.90;3.90;;;;;;5072914;28;20452;-71
2023/03/22 10:28:16;;;;;;;3.10;2.67;;;54.00;4.50;;;;;;5072469;28;20479;-70
2023/03/22 10:30:49;;;;;;;3.77;2.60;;;53.90;4.00;;;;;;5072713;28;20468;-71
2023/03/22 10:33:22;;;;;;;3.17;2.57;;;53.70;4.10;;;;;;5071493;28;20514;-71
2023/03/22 10:35:51;;;;;;;3.40;2.83;;;53.00;3.80;;;;;;5072663;28;20782;-70
2023/03/22 10:38:22;;;;;;;4.07;3.07;;;52.10;4.10;;;;;;5071817;28;20906;-71
2023/03/22 10:40:50;;;;;;;3.60;2.50;;;52.10;4.40;;;;;;5072272;28;20849;-70
2023/03/22 10:43:23;;;;;;;3.93;2.80;;;52.60;4.70;;;;;;5071927;28;20532;-71
2023/03/22 10:45:52;;;;;;;3.13;2.57;;;53.20;4.40;;;;;;5072238;28;20522;-71
2023/03/22 10:48:26;;;;;;;3.63;2.33;;;53.70;4.70;;;;;;5072167;28;20479;-71
2023/03/22 10:50:54;;;;;;;3.30;2.57;;;54.20;4.10;;;;;;5068816;28;20454;-71
2023/03/22 10:53:28;;;;;;;4.10;3.13;;;54.10;4.10;;;;;;5071943;28;20522;-72
2023/03/22 10:55:55;;;;;;;2.83;2.30;;;54.00;4.00;;;;;;5069250;28;20520;-71
2023/03/22 10:58:29;;;;;;;4.30;3.23;;;54.10;4.50;;;;;;5072125;28;20523;-71
2023/03/22 11:00:58;;;;;;;3.20;2.53;;;53.80;4.60;;;;;;5069121;28;20917;-71
2023/03/22 11:03:31;;;;;;;3.97;2.40;;;53.50;4.30;;;;;;5072177;28;20455;-71
2023/03/22 11:06:00;;;;;;;2.83;1.93;;;53.30;3.90;;;;;;5069753;28;20431;-71
2023/03/22 11:08:27;;;;;;;4.63;3.83;;;53.00;4.40;;;;;;5071335;28;20455;-71
2023/03/22 11:10:59;;;;;;;3.40;2.57;;;53.00;4.70;;;;;;5068939;28;20466;-70
2023/03/22 11:13:28;;;;;;;3.60;2.67;;;52.90;4.50;;;;;;5068715;28;20480;-72
2023/03/22 11:16:01;;;;;;;3.80;2.37;;;52.50;4.20;;;;;;5068189;28;20885;-71
2023/03/22 11:18:32;;;;;;;7.03;2.50;;;52.20;4.40;;;;;;5071711;28;20511;-71
2023/03/22 11:21:01;;;;;;;3.77;2.20;;;51.90;4.70;;;;;;5071794;28;20440;-72
2023/03/22 11:23:32;;;;;;;2.93;2.43;;;51.80;4.80;;;;;;5071445;28;20530;-72
2023/03/22 11:26:06;;;;;;;3.67;2.60;;;51.80;5.30;;;;;;5072196;28;20459;-70
2023/03/22 11:28:37;;;;;;;3.20;2.30;;;52.10;4.80;;;;;;5069154;28;20941;-71
2023/03/22 11:31:07;;;;;;;3.40;2.20;;;52.20;5.30;;;;;;5071387;28;20468;-71
2023/03/22 11:33:35;;;;;;;3.30;2.50;;;52.50;4.50;;;;;;5071235;28;20917;-71
2023/03/22 11:36:05;;;;;;;3.10;2.13;;;52.60;4.10;;;;;;5067289;28;20543;-71
2023/03/22 11:38:37;;;;;;;2.83;1.83;;;52.40;4.10;;;;;;5068613;28;20570;-71
2023/03/22 11:41:08;;;;;;;3.47;2.20;;;52.30;5.30;;;;;;5070836;28;20482;-70
2023/03/22 11:43:39;;;;;;;3.80;2.80;;;52.40;4.60;;;;;;5071124;28;20452;-70
2023/03/22 11:46:08;;;;;;;3.13;2.37;;;52.40;4.30;;;;;;5070974;28;20443;-70
2023/03/22 11:48:37;;;;;;;2.70;2.20;;;52.30;5.30;;;;;;5070916;28;20469;-70
2023/03/22 11:51:08;;;;;;;3.67;2.60;;;52.20;4.70;;;;;;5067365;28;20527;-71
2023/03/22 11:53:38;;;;;;;4.37;2.70;;;52.10;4.90;;;;;;5070196;28;20566;-70
2023/03/22 11:56:09;;;;;;;7.20;2.60;;;51.80;4.30;;;;;;5066192;28;20499;-70
2023/03/22 11:58:58;;;;;;;3.97;2.50;;;51.50;5.50;;;;;;5064149;28;20443;-71
2023/03/22 12:01:34;;;;;;;2.63;1.87;;;51.50;4.50;;;;;;5069522;28;20440;-71
2023/03/22 12:04:05;;;;;;;2.67;1.97;;;51.80;3.90;;;;;;5066063;28;20519;-71
2023/03/22 12:06:36;;;;;;;2.50;1.70;;;51.70;4.30;;;;;;5066414;28;21024;-71
2023/03/22 12:09:06;;;;;;;2.80;1.80;;;51.70;4.20;;;;;;5067363;28;20480;-71
2023/03/22 12:11:40;;;;;;;3.07;1.93;;;51.70;4.10;;;;;;5069509;28;20517;-71
2023/03/22 12:14:16;;;;;;;3.10;1.90;;;51.60;4.40;;;;;;5067319;28;20570;-70
2023/03/22 12:16:47;;;;;;;2.90;2.30;;;51.60;4.80;;;;;;5068865;28;20439;-71
2023/03/22 12:19:25;;;;;;;3.50;1.80;;;51.50;4.60;;;;;;5071577;28;20527;-71
2023/03/22 12:21:53;;;;;;;2.73;1.80;;;51.40;5.10;;;;;;5071250;28;20447;-71
2023/03/22 12:24:27;;;;;;;3.43;2.20;;;51.50;4.70;;;;;;5071608;28;20444;-71
2023/03/22 12:26:58;;;;;;;2.90;1.53;;;51.60;4.40;;;;;;5071226;28;20486;-71
2023/03/22 12:29:28;;;;;;;2.40;1.70;;;51.80;4.70;;;;;;5072573;28;20436;-71
2023/03/22 12:32:02;;;;;;;3.37;1.30;;;51.90;4.50;;;;;;5075339;28;20475;-72
2023/03/22 12:34:38;;;;;;;2.83;1.77;;;52.10;4.70;;;;;;5073147;28;20487;-71
2023/03/22 12:37:08;;;;;;;4.27;2.03;;;51.90;4.60;;;;;;5074901;28;20531;-71
2023/03/22 12:39:41;;;;;;;4.67;1.97;;;52.00;4.40;;;;;;5075236;28;20444;-70
2023/03/22 12:42:17;;;;;;;2.20;1.63;;;52.10;4.40;;;;;;5074902;28;20441;-71
2023/03/22 12:44:54;;;;;;;3.57;1.70;;;52.10;4.70;;;;;;5074147;28;20443;-71
2023/03/22 12:47:25;;;;;;;2.17;1.33;;;51.90;4.10;;;;;;5074270;28;20483;-71
2023/03/22 12:49:57;;;;;;;2.60;1.20;;;51.80;3.90;;;;;;5074497;28;20962;-71
2023/03/22 12:52:30;;;;;;;4.50;1.87;;;51.50;4.30;;;;;;5074364;28;20867;-71
2023/03/22 12:54:59;;;;;;;2.50;1.33;;;51.30;4.00;;;;;;5074574;28;20431;-70
2023/03/22 12:57:27;;;;;;;2.40;1.50;;;50.80;3.80;;;;;;5072917;28;20897;-71
2023/03/22 12:59:59;;;;;;;2.50;1.47;;;50.50;4.30;;;;;;5074497;28;20501;-71
2023/03/22 13:02:31;;;;;;;3.20;1.57;;;50.40;4.40;;;;;;5073166;28;20447;-71
2023/03/22 13:04:59;;;;;;;2.53;1.60;;;50.40;4.20;;;;;;5071175;28;20519;-71
2023/03/22 13:07:52;;;;;;;3.20;1.80;;;50.10;4.40;;;;;;5074126;28;20451;-71
2023/03/22 13:10:47;;;;;;;3.37;1.67;;;49.80;4.60;;;;;;5070606;28;20444;-70